sensor_id;sensor_type;location;lat;lon;timestamp;P1;durP1;ratioP1;P2;durP2;ratioP2
69841;SDS011;57138;51.326;-0.068;2023-02-28T00:00:20;6.30;;;1.33;;
69841;SDS011;57138;51.326;-0.068;2023-02-28T00:02:47;9.35;;;1.88;;
69841;SDS011;57138;51.326;-0.068;2023-02-28T00:05:13;10.18;;;1.90;;
69841;SDS011;57138;51.326;-0.068;2023-02-28T00:07:41;12.85;;;2.55;;
69841;SDS011;57138;51.326;-0.068;2023-02-28T00:10:07;5.30;;;1.55;;
69841;SDS011;57138;51.326;-0.068;2023-02-28T00:12:35;7.75;;;2.13;;
69841;SDS011;57138;51.326;-0.068;2023-02-28T00:15:02;7.47;;;2.00;;
69841;SDS011;57138;51.326;-0.068;2023-02-28T00:17:31;9.13;;;1.67;;
69841;SDS011;57138;51.326;-0.068;2023-02-28T00:19:57;11.93;;;2.20;;
69841;SDS011;57138;51.326;-0.068;2023-02-28T00:22:26;9.55;;;1.88;;
69841;SDS011;57138;51.326;-0.068;2023-02-28T00:24:52;6.55;;;2.25;;
69841;SDS011;57138;51.326;-0.068;2023-02-28T00:27:18;10.45;;;2.17;;
69841;SDS011;57138;51.326;-0.068;2023-02-28T00:29:43;17.88;;;2.72;;
69841;SDS011;57138;51.326;-0.068;2023-02-28T00:32:11;7.70;;;2.33;;
69841;SDS011;57138;51.326;-0.068;2023-02-28T00:34:37;10.15;;;2.25;;
69841;SDS011;57138;51.326;-0.068;2023-02-28T00:37:06;13.88;;;2.60;;
69841;SDS011;57138;51.326;-0.068;2023-02-28T00:39:35;9.65;;;2.70;;
69841;SDS011;57138;51.326;-0.068;2023-02-28T00:42:02;6.95;;;2.90;;
69841;SDS011;57138;51.326;-0.068;2023-02-28T00:44:29;8.80;;;2.90;;
69841;SDS011;57138;51.326;-0.068;2023-02-28T00:46:55;10.07;;;2.60;;
69841;SDS011;57138;51.326;-0.068;2023-02-28T00:49:21;7.20;;;2.50;;
69841;SDS011;57138;51.326;-0.068;2023-02-28T00:51:47;11.15;;;2.88;;
69841;SDS011;57138;51.326;-0.068;2023-02-28T00:54:13;10.38;;;2.30;;
69841;SDS011;57138;51.326;-0.068;2023-02-28T00:56:39;15.70;;;2.70;;
69841;SDS011;57138;51.326;-0.068;2023-02-28T00:59:04;8.07;;;2.70;;
69841;SDS011;57138;51.326;-0.068;2023-02-28T01:01:30;8.80;;;2.25;;
69841;SDS011;57138;51.326;-0.068;2023-02-28T01:03:55;11.38;;;2.25;;
69841;SDS011;57138;51.326;-0.068;2023-02-28T01:06:21;9.23;;;2.00;;
69841;SDS011;57138;51.326;-0.068;2023-02-28T01:08:46;7.53;;;2.20;;
69841;SDS011;57138;51.326;-0.068;2023-02-28T01:11:13;10.07;;;2.70;;
69841;SDS011;57138;51.326;-0.068;2023-02-28T01:13:41;16.88;;;2.65;;
69841;SDS011;57138;51.326;-0.068;2023-02-28T01:16:07;9.75;;;2.13;;
69841;SDS011;57138;51.326;-0.068;2023-02-28T01:18:33;7.28;;;2.45;;
69841;SDS011;57138;51.326;-0.068;2023-02-28T01:20:58;11.50;;;2.55;;
69841;SDS011;57138;51.326;-0.068;2023-02-28T01:23:28;8.27;;;2.60;;
69841;SDS011;57138;51.326;-0.068;2023-02-28T01:25:54;10.55;;;2.22;;
69841;SDS011;57138;51.326;-0.068;2023-02-28T01:28:20;10.40;;;2.45;;
69841;SDS011;57138;51.326;-0.068;2023-02-28T01:30:49;7.90;;;2.60;;
69841;SDS011;57138;51.326;-0.068;2023-02-28T01:33:15;5.03;;;1.92;;
69841;SDS011;57138;51.326;-0.068;2023-02-28T01:35:41;11.75;;;2.83;;
69841;SDS011;57138;51.326;-0.068;2023-02-28T01:38:06;11.75;;;2.70;;
69841;SDS011;57138;51.326;-0.068;2023-02-28T01:40:32;10.63;;;2.65;;
69841;SDS011;57138;51.326;-0.068;2023-02-28T01:42:58;10.88;;;3.00;;
69841;SDS011;57138;51.326;-0.068;2023-02-28T01:45:25;16.88;;;2.97;;
69841;SDS011;57138;51.326;-0.068;2023-02-28T01:47:56;10.93;;;2.63;;
69841;SDS011;57138;51.326;-0.068;2023-02-28T01:50:37;10.13;;;3.53;;
69841;SDS011;57138;51.326;-0.068;2023-02-28T01:53:07;9.93;;;2.70;;
69841;SDS011;57138;51.326;-0.068;2023-02-28T01:55:37;8.70;;;3.33;;
69841;SDS011;57138;51.326;-0.068;2023-02-28T01:58:04;15.38;;;3.55;;
69841;SDS011;57138;51.326;-0.068;2023-02-28T02:00:32;17.85;;;3.90;;
69841;SDS011;57138;51.326;-0.068;2023-02-28T02:03:08;16.25;;;3.88;;
69841;SDS011;57138;51.326;-0.068;2023-02-28T02:05:37;16.77;;;3.80;;
69841;SDS011;57138;51.326;-0.068;2023-02-28T02:08:05;16.88;;;4.15;;
69841;SDS011;57138;51.326;-0.068;2023-02-28T02:10:36;16.92;;;4.60;;
69841;SDS011;57138;51.326;-0.068;2023-02-28T02:13:59;18.55;;;3.78;;
69841;SDS011;57138;51.326;-0.068;2023-02-28T02:16:41;12.10;;;3.60;;
69841;SDS011;57138;51.326;-0.068;2023-02-28T02:36:06;16.70;;;3.72;;
69841;SDS011;57138;51.326;-0.068;2023-02-28T02:38:45;15.38;;;4.00;;
69841;SDS011;57138;51.326;-0.068;2023-02-28T02:41:19;15.07;;;3.10;;
69841;SDS011;57138;51.326;-0.068;2023-02-28T02:43:51;16.42;;;3.55;;
69841;SDS011;57138;51.326;-0.068;2023-02-28T02:46:23;11.25;;;3.15;;
69841;SDS011;57138;51.326;-0.068;2023-02-28T02:48:54;16.58;;;3.38;;
69841;SDS011;57138;51.326;-0.068;2023-02-28T02:51:22;16.30;;;3.15;;
69841;SDS011;57138;51.326;-0.068;2023-02-28T02:56:18;16.65;;;3.97;;
69841;SDS011;57138;51.326;-0.068;2023-02-28T02:58:47;16.38;;;3.25;;
69841;SDS011;57138;51.326;-0.068;2023-02-28T03:01:17;16.30;;;3.92;;
69841;SDS011;57138;51.326;-0.068;2023-02-28T03:03:55;12.38;;;3.35;;
69841;SDS011;57138;51.326;-0.068;2023-02-28T03:06:23;18.70;;;3.28;;
69841;SDS011;57138;51.326;-0.068;2023-02-28T03:08:49;18.98;;;4.15;;
69841;SDS011;57138;51.326;-0.068;2023-02-28T03:11:15;23.45;;;4.00;;
69841;SDS011;57138;51.326;-0.068;2023-02-28T03:18:57;16.35;;;3.30;;
69841;SDS011;57138;51.326;-0.068;2023-02-28T03:26:57;16.90;;;3.30;;
69841;SDS011;57138;51.326;-0.068;2023-02-28T03:29:39;19.15;;;3.63;;
69841;SDS011;57138;51.326;-0.068;2023-02-28T03:32:16;13.02;;;4.05;;
69841;SDS011;57138;51.326;-0.068;2023-02-28T03:34:58;12.05;;;3.88;;
69841;SDS011;57138;51.326;-0.068;2023-02-28T03:37:31;20.15;;;4.45;;
69841;SDS011;57138;51.326;-0.068;2023-02-28T03:40:08;19.00;;;4.75;;
69841;SDS011;57138;51.326;-0.068;2023-02-28T03:42:37;24.83;;;5.20;;
69841;SDS011;57138;51.326;-0.068;2023-02-28T03:45:16;19.17;;;6.00;;
69841;SDS011;57138;51.326;-0.068;2023-02-28T03:50:22;15.02;;;4.07;;
69841;SDS011;57138;51.326;-0.068;2023-02-28T03:52:57;14.93;;;4.10;;
69841;SDS011;57138;51.326;-0.068;2023-02-28T03:55:28;22.70;;;4.05;;
69841;SDS011;57138;51.326;-0.068;2023-02-28T04:01:13;13.80;;;3.72;;
69841;SDS011;57138;51.326;-0.068;2023-02-28T04:03:49;20.02;;;3.67;;
69841;SDS011;57138;51.326;-0.068;2023-02-28T04:06:19;13.75;;;4.15;;
69841;SDS011;57138;51.326;-0.068;2023-02-28T04:08:46;18.55;;;4.88;;
69841;SDS011;57138;51.326;-0.068;2023-02-28T04:13:40;33.03;;;5.85;;
69841;SDS011;57138;51.326;-0.068;2023-02-28T04:16:08;13.07;;;5.60;;
69841;SDS011;57138;51.326;-0.068;2023-02-28T04:18:37;14.38;;;4.18;;
69841;SDS011;57138;51.326;-0.068;2023-02-28T04:21:03;19.42;;;5.03;;
69841;SDS011;57138;51.326;-0.068;2023-02-28T04:23:29;15.25;;;5.55;;
69841;SDS011;57138;51.326;-0.068;2023-02-28T04:25:55;27.70;;;5.78;;
69841;SDS011;57138;51.326;-0.068;2023-02-28T04:28:21;17.90;;;5.15;;
69841;SDS011;57138;51.326;-0.068;2023-02-28T04:30:46;17.15;;;5.15;;
69841;SDS011;57138;51.326;-0.068;2023-02-28T04:33:12;14.10;;;4.22;;
69841;SDS011;57138;51.326;-0.068;2023-02-28T04:35:37;16.33;;;5.50;;
69841;SDS011;57138;51.326;-0.068;2023-02-28T04:38:02;21.60;;;4.45;;
69841;SDS011;57138;51.326;-0.068;2023-02-28T04:40:28;16.38;;;4.45;;
69841;SDS011;57138;51.326;-0.068;2023-02-28T04:42:53;19.60;;;4.43;;
69841;SDS011;57138;51.326;-0.068;2023-02-28T04:45:19;10.10;;;4.88;;
69841;SDS011;57138;51.326;-0.068;2023-02-28T04:47:44;14.70;;;5.63;;
69841;SDS011;57138;51.326;-0.068;2023-02-28T04:50:10;20.77;;;4.55;;
69841;SDS011;57138;51.326;-0.068;2023-02-28T04:52:35;14.82;;;4.53;;
69841;SDS011;57138;51.326;-0.068;2023-02-28T04:55:01;19.05;;;5.50;;
69841;SDS011;57138;51.326;-0.068;2023-02-28T04:57:26;20.23;;;4.40;;
69841;SDS011;57138;51.326;-0.068;2023-02-28T04:59:52;19.13;;;5.07;;
69841;SDS011;57138;51.326;-0.068;2023-02-28T05:02:18;23.50;;;6.88;;
69841;SDS011;57138;51.326;-0.068;2023-02-28T05:04:43;13.27;;;4.78;;
69841;SDS011;57138;51.326;-0.068;2023-02-28T05:07:08;23.90;;;4.80;;
69841;SDS011;57138;51.326;-0.068;2023-02-28T05:09:34;19.17;;;5.93;;
69841;SDS011;57138;51.326;-0.068;2023-02-28T05:12:00;19.52;;;5.30;;
69841;SDS011;57138;51.326;-0.068;2023-02-28T05:14:25;18.17;;;4.57;;
69841;SDS011;57138;51.326;-0.068;2023-02-28T05:16:51;20.05;;;5.55;;
69841;SDS011;57138;51.326;-0.068;2023-02-28T05:19:16;13.85;;;5.28;;
69841;SDS011;57138;51.326;-0.068;2023-02-28T05:21:49;19.58;;;5.13;;
69841;SDS011;57138;51.326;-0.068;2023-02-28T05:24:16;19.80;;;5.15;;
69841;SDS011;57138;51.326;-0.068;2023-02-28T05:26:47;18.10;;;4.47;;
69841;SDS011;57138;51.326;-0.068;2023-02-28T05:29:14;16.45;;;4.47;;
69841;SDS011;57138;51.326;-0.068;2023-02-28T05:31:39;12.23;;;4.55;;
69841;SDS011;57138;51.326;-0.068;2023-02-28T05:34:04;17.60;;;5.28;;
69841;SDS011;57138;51.326;-0.068;2023-02-28T05:36:30;22.15;;;5.28;;
69841;SDS011;57138;51.326;-0.068;2023-02-28T05:38:55;19.67;;;4.50;;
69841;SDS011;57138;51.326;-0.068;2023-02-28T05:41:21;16.58;;;4.75;;
69841;SDS011;57138;51.326;-0.068;2023-02-28T05:43:47;15.05;;;5.00;;
69841;SDS011;57138;51.326;-0.068;2023-02-28T05:46:13;20.63;;;5.88;;
69841;SDS011;57138;51.326;-0.068;2023-02-28T05:48:40;28.20;;;5.97;;
69841;SDS011;57138;51.326;-0.068;2023-02-28T05:51:06;21.13;;;5.40;;
69841;SDS011;57138;51.326;-0.068;2023-02-28T05:53:32;18.60;;;6.50;;
69841;SDS011;57138;51.326;-0.068;2023-02-28T05:55:58;21.77;;;6.03;;
69841;SDS011;57138;51.326;-0.068;2023-02-28T05:58:24;18.33;;;6.57;;
69841;SDS011;57138;51.326;-0.068;2023-02-28T06:00:57;24.33;;;7.38;;
69841;SDS011;57138;51.326;-0.068;2023-02-28T06:03:23;19.98;;;7.57;;
69841;SDS011;57138;51.326;-0.068;2023-02-28T06:05:49;25.05;;;8.68;;
69841;SDS011;57138;51.326;-0.068;2023-02-28T06:08:15;19.27;;;7.15;;
69841;SDS011;57138;51.326;-0.068;2023-02-28T06:10:41;25.95;;;8.63;;
69841;SDS011;57138;51.326;-0.068;2023-02-28T06:13:06;21.50;;;6.90;;
69841;SDS011;57138;51.326;-0.068;2023-02-28T06:15:31;23.70;;;8.02;;
69841;SDS011;57138;51.326;-0.068;2023-02-28T06:17:57;20.92;;;8.15;;
69841;SDS011;57138;51.326;-0.068;2023-02-28T06:20:23;24.42;;;7.40;;
69841;SDS011;57138;51.326;-0.068;2023-02-28T06:22:51;21.35;;;8.30;;
69841;SDS011;57138;51.326;-0.068;2023-02-28T06:25:17;23.83;;;9.05;;
69841;SDS011;57138;51.326;-0.068;2023-02-28T06:27:43;25.40;;;9.50;;
69841;SDS011;57138;51.326;-0.068;2023-02-28T06:30:09;30.48;;;10.05;;
69841;SDS011;57138;51.326;-0.068;2023-02-28T06:32:36;25.42;;;11.07;;
69841;SDS011;57138;51.326;-0.068;2023-02-28T06:35:02;21.77;;;10.65;;
69841;SDS011;57138;51.326;-0.068;2023-02-28T06:37:28;28.52;;;11.32;;
69841;SDS011;57138;51.326;-0.068;2023-02-28T06:39:55;22.35;;;10.70;;
69841;SDS011;57138;51.326;-0.068;2023-02-28T06:42:21;23.88;;;9.57;;
69841;SDS011;57138;51.326;-0.068;2023-02-28T06:44:49;20.50;;;8.60;;
69841;SDS011;57138;51.326;-0.068;2023-02-28T06:47:16;27.17;;;8.38;;
69841;SDS011;57138;51.326;-0.068;2023-02-28T06:49:41;20.05;;;8.57;;
69841;SDS011;57138;51.326;-0.068;2023-02-28T06:52:07;22.23;;;8.23;;
69841;SDS011;57138;51.326;-0.068;2023-02-28T06:54:33;24.13;;;8.85;;
69841;SDS011;57138;51.326;-0.068;2023-02-28T06:56:59;27.17;;;9.18;;
69841;SDS011;57138;51.326;-0.068;2023-02-28T06:59:24;26.83;;;8.98;;
69841;SDS011;57138;51.326;-0.068;2023-02-28T07:01:50;24.38;;;8.02;;
69841;SDS011;57138;51.326;-0.068;2023-02-28T07:04:15;22.95;;;9.55;;
69841;SDS011;57138;51.326;-0.068;2023-02-28T07:06:41;16.95;;;8.05;;
69841;SDS011;57138;51.326;-0.068;2023-02-28T07:09:06;20.20;;;8.55;;
69841;SDS011;57138;51.326;-0.068;2023-02-28T07:11:31;21.90;;;8.75;;
69841;SDS011;57138;51.326;-0.068;2023-02-28T07:13:57;26.08;;;9.18;;
69841;SDS011;57138;51.326;-0.068;2023-02-28T07:16:23;24.77;;;8.63;;
69841;SDS011;57138;51.326;-0.068;2023-02-28T07:18:51;25.88;;;9.02;;
69841;SDS011;57138;51.326;-0.068;2023-02-28T07:21:17;28.88;;;9.00;;
69841;SDS011;57138;51.326;-0.068;2023-02-28T07:23:43;26.40;;;10.75;;
69841;SDS011;57138;51.326;-0.068;2023-02-28T07:26:10;24.08;;;8.63;;
69841;SDS011;57138;51.326;-0.068;2023-02-28T07:28:40;23.20;;;8.10;;
69841;SDS011;57138;51.326;-0.068;2023-02-28T07:31:10;22.48;;;8.25;;
69841;SDS011;57138;51.326;-0.068;2023-02-28T07:33:36;17.10;;;8.02;;
69841;SDS011;57138;51.326;-0.068;2023-02-28T07:36:06;26.95;;;9.43;;
69841;SDS011;57138;51.326;-0.068;2023-02-28T07:38:36;20.65;;;9.20;;
69841;SDS011;57138;51.326;-0.068;2023-02-28T07:41:02;19.98;;;8.60;;
69841;SDS011;57138;51.326;-0.068;2023-02-28T07:43:33;18.08;;;8.07;;
69841;SDS011;57138;51.326;-0.068;2023-02-28T07:46:03;13.63;;;7.95;;
69841;SDS011;57138;51.326;-0.068;2023-02-28T07:48:29;22.20;;;8.68;;
69841;SDS011;57138;51.326;-0.068;2023-02-28T07:50:55;20.25;;;7.60;;
69841;SDS011;57138;51.326;-0.068;2023-02-28T07:53:21;21.65;;;6.95;;
69841;SDS011;57138;51.326;-0.068;2023-02-28T07:55:47;12.88;;;5.97;;
69841;SDS011;57138;51.326;-0.068;2023-02-28T07:58:12;10.77;;;5.40;;
69841;SDS011;57138;51.326;-0.068;2023-02-28T08:00:38;15.27;;;6.88;;
69841;SDS011;57138;51.326;-0.068;2023-02-28T08:03:03;12.23;;;6.30;;
69841;SDS011;57138;51.326;-0.068;2023-02-28T08:05:29;16.10;;;6.00;;
69841;SDS011;57138;51.326;-0.068;2023-02-28T08:07:55;13.80;;;6.93;;
69841;SDS011;57138;51.326;-0.068;2023-02-28T08:10:21;13.18;;;5.30;;
69841;SDS011;57138;51.326;-0.068;2023-02-28T08:12:47;15.20;;;6.40;;
69841;SDS011;57138;51.326;-0.068;2023-02-28T08:15:12;12.75;;;6.47;;
69841;SDS011;57138;51.326;-0.068;2023-02-28T08:17:38;19.13;;;8.98;;
69841;SDS011;57138;51.326;-0.068;2023-02-28T08:20:04;26.95;;;12.32;;
69841;SDS011;57138;51.326;-0.068;2023-02-28T08:22:29;18.58;;;6.82;;
69841;SDS011;57138;51.326;-0.068;2023-02-28T08:24:55;18.30;;;6.95;;
69841;SDS011;57138;51.326;-0.068;2023-02-28T08:27:20;19.33;;;9.65;;
69841;SDS011;57138;51.326;-0.068;2023-02-28T08:29:46;9.75;;;5.07;;
69841;SDS011;57138;51.326;-0.068;2023-02-28T08:32:11;10.95;;;6.07;;
69841;SDS011;57138;51.326;-0.068;2023-02-28T08:34:39;16.63;;;6.10;;
69841;SDS011;57138;51.326;-0.068;2023-02-28T08:37:05;13.65;;;4.43;;
69841;SDS011;57138;51.326;-0.068;2023-02-28T08:39:33;11.75;;;6.20;;
69841;SDS011;57138;51.326;-0.068;2023-02-28T08:42:01;8.90;;;4.55;;
69841;SDS011;57138;51.326;-0.068;2023-02-28T08:44:27;11.95;;;3.50;;
69841;SDS011;57138;51.326;-0.068;2023-02-28T08:46:52;7.28;;;3.63;;
69841;SDS011;57138;51.326;-0.068;2023-02-28T08:49:18;12.60;;;4.40;;
69841;SDS011;57138;51.326;-0.068;2023-02-28T08:51:43;9.52;;;4.30;;
69841;SDS011;57138;51.326;-0.068;2023-02-28T08:54:09;10.80;;;4.03;;
69841;SDS011;57138;51.326;-0.068;2023-02-28T08:56:37;8.82;;;3.80;;
69841;SDS011;57138;51.326;-0.068;2023-02-28T08:59:03;10.02;;;4.13;;
69841;SDS011;57138;51.326;-0.068;2023-02-28T09:01:29;12.60;;;4.50;;
69841;SDS011;57138;51.326;-0.068;2023-02-28T09:03:57;12.63;;;3.90;;
69841;SDS011;57138;51.326;-0.068;2023-02-28T09:06:24;10.95;;;4.05;;
69841;SDS011;57138;51.326;-0.068;2023-02-28T09:08:50;7.57;;;3.08;;
69841;SDS011;57138;51.326;-0.068;2023-02-28T09:11:16;9.95;;;3.88;;
69841;SDS011;57138;51.326;-0.068;2023-02-28T09:13:43;8.05;;;3.35;;
69841;SDS011;57138;51.326;-0.068;2023-02-28T09:16:10;9.43;;;3.30;;
69841;SDS011;57138;51.326;-0.068;2023-02-28T09:18:38;7.35;;;3.95;;
69841;SDS011;57138;51.326;-0.068;2023-02-28T09:21:05;7.78;;;2.50;;
69841;SDS011;57138;51.326;-0.068;2023-02-28T09:23:32;5.90;;;2.13;;
69841;SDS011;57138;51.326;-0.068;2023-02-28T09:25:58;8.52;;;2.90;;
69841;SDS011;57138;51.326;-0.068;2023-02-28T09:28:23;5.78;;;2.17;;
69841;SDS011;57138;51.326;-0.068;2023-02-28T09:30:49;4.90;;;2.10;;
69841;SDS011;57138;51.326;-0.068;2023-02-28T09:33:18;5.28;;;2.00;;
69841;SDS011;57138;51.326;-0.068;2023-02-28T09:35:48;8.85;;;3.40;;
69841;SDS011;57138;51.326;-0.068;2023-02-28T09:38:14;7.47;;;2.10;;
69841;SDS011;57138;51.326;-0.068;2023-02-28T09:43:11;4.88;;;1.67;;
69841;SDS011;57138;51.326;-0.068;2023-02-28T09:45:40;5.10;;;2.00;;
69841;SDS011;57138;51.326;-0.068;2023-02-28T09:48:14;4.38;;;1.60;;
69841;SDS011;57138;51.326;-0.068;2023-02-28T09:50:46;3.33;;;1.50;;
69841;SDS011;57138;51.326;-0.068;2023-02-28T09:53:20;4.88;;;1.60;;
69841;SDS011;57138;51.326;-0.068;2023-02-28T09:55:59;4.50;;;1.85;;
69841;SDS011;57138;51.326;-0.068;2023-02-28T09:58:49;4.95;;;1.90;;
69841;SDS011;57138;51.326;-0.068;2023-02-28T10:07:04;5.78;;;2.28;;
69841;SDS011;57138;51.326;-0.068;2023-02-28T10:09:42;7.18;;;2.08;;
69841;SDS011;57138;51.326;-0.068;2023-02-28T10:12:10;7.93;;;2.20;;
69841;SDS011;57138;51.326;-0.068;2023-02-28T10:14:37;7.93;;;2.90;;
69841;SDS011;57138;51.326;-0.068;2023-02-28T10:17:08;7.15;;;3.00;;
69841;SDS011;57138;51.326;-0.068;2023-02-28T10:22:29;8.85;;;2.92;;
69841;SDS011;57138;51.326;-0.068;2023-02-28T10:24:59;7.22;;;3.08;;
69841;SDS011;57138;51.326;-0.068;2023-02-28T10:27:41;7.07;;;3.20;;
69841;SDS011;57138;51.326;-0.068;2023-02-28T10:30:09;6.43;;;3.28;;
69841;SDS011;57138;51.326;-0.068;2023-02-28T10:32:36;9.75;;;4.00;;
69841;SDS011;57138;51.326;-0.068;2023-02-28T10:35:17;6.63;;;2.78;;
69841;SDS011;57138;51.326;-0.068;2023-02-28T10:37:45;8.18;;;2.70;;
69841;SDS011;57138;51.326;-0.068;2023-02-28T10:43:01;11.90;;;4.22;;
69841;SDS011;57138;51.326;-0.068;2023-02-28T10:45:29;9.05;;;3.67;;
69841;SDS011;57138;51.326;-0.068;2023-02-28T10:55:35;6.40;;;3.10;;
69841;SDS011;57138;51.326;-0.068;2023-02-28T10:58:01;6.93;;;3.17;;
69841;SDS011;57138;51.326;-0.068;2023-02-28T11:00:31;19.77;;;3.88;;
69841;SDS011;57138;51.326;-0.068;2023-02-28T11:02:58;10.77;;;3.50;;
69841;SDS011;57138;51.326;-0.068;2023-02-28T11:05:29;6.55;;;1.90;;
69841;SDS011;57138;51.326;-0.068;2023-02-28T11:10:37;9.38;;;2.97;;
69841;SDS011;57138;51.326;-0.068;2023-02-28T11:13:04;9.00;;;2.72;;
69841;SDS011;57138;51.326;-0.068;2023-02-28T11:15:31;7.38;;;2.55;;
69841;SDS011;57138;51.326;-0.068;2023-02-28T11:17:59;4.80;;;2.10;;
69841;SDS011;57138;51.326;-0.068;2023-02-28T11:20:37;7.97;;;1.90;;
69841;SDS011;57138;51.326;-0.068;2023-02-28T11:23:05;8.93;;;2.38;;
69841;SDS011;57138;51.326;-0.068;2023-02-28T11:25:38;9.43;;;3.35;;
69841;SDS011;57138;51.326;-0.068;2023-02-28T11:28:06;9.50;;;3.42;;
69841;SDS011;57138;51.326;-0.068;2023-02-28T11:30:59;5.90;;;2.30;;
69841;SDS011;57138;51.326;-0.068;2023-02-28T11:36:00;4.78;;;1.48;;
69841;SDS011;57138;51.326;-0.068;2023-02-28T11:38:30;5.28;;;2.05;;
69841;SDS011;57138;51.326;-0.068;2023-02-28T11:41:12;10.07;;;3.40;;
69841;SDS011;57138;51.326;-0.068;2023-02-28T11:46:59;7.85;;;3.35;;
69841;SDS011;57138;51.326;-0.068;2023-02-28T11:54:56;5.88;;;2.65;;
69841;SDS011;57138;51.326;-0.068;2023-02-28T12:08:43;6.32;;;3.42;;
69841;SDS011;57138;51.326;-0.068;2023-02-28T12:11:19;12.75;;;4.13;;
69841;SDS011;57138;51.326;-0.068;2023-02-28T12:14:06;6.88;;;3.65;;
69841;SDS011;57138;51.326;-0.068;2023-02-28T12:27:38;11.27;;;5.38;;
69841;SDS011;57138;51.326;-0.068;2023-02-28T12:30:14;7.32;;;3.78;;
69841;SDS011;57138;51.326;-0.068;2023-02-28T12:32:56;6.10;;;2.85;;
69841;SDS011;57138;51.326;-0.068;2023-02-28T12:35:32;6.93;;;2.85;;
69841;SDS011;57138;51.326;-0.068;2023-02-28T12:38:04;6.32;;;3.00;;
69841;SDS011;57138;51.326;-0.068;2023-02-28T12:40:43;8.55;;;2.50;;
69841;SDS011;57138;51.326;-0.068;2023-02-28T12:43:13;6.13;;;2.70;;
69841;SDS011;57138;51.326;-0.068;2023-02-28T12:48:40;6.38;;;2.80;;
69841;SDS011;57138;51.326;-0.068;2023-02-28T12:51:09;5.13;;;2.55;;
69841;SDS011;57138;51.326;-0.068;2023-02-28T12:53:58;4.13;;;1.95;;
69841;SDS011;57138;51.326;-0.068;2023-02-28T12:59:36;6.53;;;2.55;;
69841;SDS011;57138;51.326;-0.068;2023-02-28T13:05:14;3.75;;;1.80;;
69841;SDS011;57138;51.326;-0.068;2023-02-28T13:10:52;10.20;;;2.60;;
69841;SDS011;57138;51.326;-0.068;2023-02-28T13:13:21;8.48;;;2.80;;
69841;SDS011;57138;51.326;-0.068;2023-02-28T13:16:05;4.75;;;2.15;;
69841;SDS011;57138;51.326;-0.068;2023-02-28T13:21:03;8.27;;;3.03;;
69841;SDS011;57138;51.326;-0.068;2023-02-28T13:23:55;6.38;;;2.75;;
69841;SDS011;57138;51.326;-0.068;2023-02-28T13:34:30;5.35;;;2.53;;
69841;SDS011;57138;51.326;-0.068;2023-02-28T13:39:49;5.63;;;2.53;;
69841;SDS011;57138;51.326;-0.068;2023-02-28T13:47:40;8.50;;;2.40;;
69841;SDS011;57138;51.326;-0.068;2023-02-28T13:50:29;7.30;;;3.45;;
69841;SDS011;57138;51.326;-0.068;2023-02-28T13:53:13;5.22;;;2.38;;
69841;SDS011;57138;51.326;-0.068;2023-02-28T13:55:45;6.78;;;2.92;;
69841;SDS011;57138;51.326;-0.068;2023-02-28T13:59:02;8.13;;;2.65;;
69841;SDS011;57138;51.326;-0.068;2023-02-28T14:01:57;6.82;;;2.35;;
69841;SDS011;57138;51.326;-0.068;2023-02-28T14:07:28;4.30;;;1.95;;
69841;SDS011;57138;51.326;-0.068;2023-02-28T14:10:03;5.57;;;2.35;;
69841;SDS011;57138;51.326;-0.068;2023-02-28T14:18:04;6.53;;;2.00;;
69841;SDS011;57138;51.326;-0.068;2023-02-28T14:21:10;3.78;;;1.30;;
69841;SDS011;57138;51.326;-0.068;2023-02-28T14:32:27;3.47;;;1.75;;
69841;SDS011;57138;51.326;-0.068;2023-02-28T14:37:54;4.15;;;1.92;;
69841;SDS011;57138;51.326;-0.068;2023-02-28T14:40:38;4.82;;;1.73;;
69841;SDS011;57138;51.326;-0.068;2023-02-28T14:43:06;4.53;;;2.15;;
69841;SDS011;57138;51.326;-0.068;2023-02-28T14:45:55;6.43;;;1.67;;
69841;SDS011;57138;51.326;-0.068;2023-02-28T14:48:23;4.70;;;1.90;;
69841;SDS011;57138;51.326;-0.068;2023-02-28T14:50:53;6.13;;;2.03;;
69841;SDS011;57138;51.326;-0.068;2023-02-28T14:53:25;6.45;;;2.40;;
69841;SDS011;57138;51.326;-0.068;2023-02-28T14:55:53;5.43;;;2.42;;
69841;SDS011;57138;51.326;-0.068;2023-02-28T14:58:21;4.55;;;1.60;;
69841;SDS011;57138;51.326;-0.068;2023-02-28T15:00:53;8.90;;;2.08;;
69841;SDS011;57138;51.326;-0.068;2023-02-28T15:05:53;6.28;;;1.40;;
69841;SDS011;57138;51.326;-0.068;2023-02-28T15:08:21;5.55;;;1.52;;
69841;SDS011;57138;51.326;-0.068;2023-02-28T15:10:51;4.03;;;1.77;;
69841;SDS011;57138;51.326;-0.068;2023-02-28T15:13:35;4.93;;;1.77;;
69841;SDS011;57138;51.326;-0.068;2023-02-28T15:16:04;2.72;;;1.33;;
69841;SDS011;57138;51.326;-0.068;2023-02-28T15:18:50;3.13;;;1.27;;
69841;SDS011;57138;51.326;-0.068;2023-02-28T15:23:49;6.45;;;1.40;;
69841;SDS011;57138;51.326;-0.068;2023-02-28T15:26:32;4.90;;;2.08;;
69841;SDS011;57138;51.326;-0.068;2023-02-28T15:29:07;4.70;;;1.80;;
69841;SDS011;57138;51.326;-0.068;2023-02-28T15:31:49;4.78;;;1.80;;
69841;SDS011;57138;51.326;-0.068;2023-02-28T15:34:33;7.10;;;1.60;;
69841;SDS011;57138;51.326;-0.068;2023-02-28T15:37:01;5.15;;;1.70;;
69841;SDS011;57138;51.326;-0.068;2023-02-28T15:39:31;5.50;;;2.22;;
69841;SDS011;57138;51.326;-0.068;2023-02-28T15:42:10;4.60;;;1.63;;
69841;SDS011;57138;51.326;-0.068;2023-02-28T15:44:37;6.88;;;2.00;;
69841;SDS011;57138;51.326;-0.068;2023-02-28T15:49:47;4.65;;;1.70;;
69841;SDS011;57138;51.326;-0.068;2023-02-28T15:52:18;2.78;;;1.20;;
69841;SDS011;57138;51.326;-0.068;2023-02-28T15:54:46;6.50;;;3.35;;
69841;SDS011;57138;51.326;-0.068;2023-02-28T15:57:20;2.72;;;1.10;;
69841;SDS011;57138;51.326;-0.068;2023-02-28T15:59:58;3.55;;;1.45;;
69841;SDS011;57138;51.326;-0.068;2023-02-28T16:02:33;6.55;;;1.45;;
69841;SDS011;57138;51.326;-0.068;2023-02-28T16:07:31;5.95;;;1.30;;
69841;SDS011;57138;51.326;-0.068;2023-02-28T16:09:58;4.05;;;1.73;;
69841;SDS011;57138;51.326;-0.068;2023-02-28T16:12:25;4.95;;;1.67;;
69841;SDS011;57138;51.326;-0.068;2023-02-28T16:14:54;3.25;;;1.23;;
69841;SDS011;57138;51.326;-0.068;2023-02-28T16:17:23;5.53;;;1.73;;
69841;SDS011;57138;51.326;-0.068;2023-02-28T16:19:51;6.25;;;2.60;;
69841;SDS011;57138;51.326;-0.068;2023-02-28T16:22:17;4.80;;;2.85;;
69841;SDS011;57138;51.326;-0.068;2023-02-28T16:24:43;4.35;;;2.00;;
69841;SDS011;57138;51.326;-0.068;2023-02-28T16:27:51;4.40;;;1.45;;
69841;SDS011;57138;51.326;-0.068;2023-02-28T16:30:00;6.30;;;2.13;;
69841;SDS011;57138;51.326;-0.068;2023-02-28T16:32:26;4.35;;;2.20;;
69841;SDS011;57138;51.326;-0.068;2023-02-28T16:34:52;6.25;;;1.80;;
69841;SDS011;57138;51.326;-0.068;2023-02-28T16:37:18;4.70;;;1.88;;
69841;SDS011;57138;51.326;-0.068;2023-02-28T16:39:44;6.32;;;2.83;;
69841;SDS011;57138;51.326;-0.068;2023-02-28T16:42:11;6.63;;;1.75;;
69841;SDS011;57138;51.326;-0.068;2023-02-28T16:44:42;4.57;;;2.05;;
69841;SDS011;57138;51.326;-0.068;2023-02-28T16:47:08;5.03;;;1.48;;
69841;SDS011;57138;51.326;-0.068;2023-02-28T16:49:35;4.32;;;1.52;;
69841;SDS011;57138;51.326;-0.068;2023-02-28T16:52:01;6.20;;;2.95;;
69841;SDS011;57138;51.326;-0.068;2023-02-28T16:54:26;6.40;;;2.42;;
69841;SDS011;57138;51.326;-0.068;2023-02-28T16:56:51;8.27;;;2.60;;
69841;SDS011;57138;51.326;-0.068;2023-02-28T16:59:24;4.90;;;2.00;;
69841;SDS011;57138;51.326;-0.068;2023-02-28T17:01:51;4.13;;;1.92;;
69841;SDS011;57138;51.326;-0.068;2023-02-28T17:04:17;2.38;;;1.08;;
69841;SDS011;57138;51.326;-0.068;2023-02-28T17:06:43;3.75;;;1.67;;
69841;SDS011;57138;51.326;-0.068;2023-02-28T17:09:16;4.75;;;1.90;;
69841;SDS011;57138;51.326;-0.068;2023-02-28T17:11:44;3.25;;;1.75;;
69841;SDS011;57138;51.326;-0.068;2023-02-28T17:14:10;3.28;;;1.42;;
69841;SDS011;57138;51.326;-0.068;2023-02-28T17:16:36;5.15;;;1.70;;
69841;SDS011;57138;51.326;-0.068;2023-02-28T17:19:05;3.47;;;1.40;;